createdAt,value
2018-10-21T00:00:49.023Z,100.00
2018-10-21T00:03:18.185Z,100.00
2018-10-21T00:05:47.274Z,100.00
2018-10-21T00:08:15.943Z,100.00
2018-10-21T00:10:45.250Z,100.00
2018-10-21T00:13:14.382Z,100.00
2018-10-21T00:15:43.643Z,100.00
2018-10-21T00:18:12.743Z,100.00
2018-10-21T00:20:41.920Z,100.00
2018-10-21T00:23:11.082Z,100.00
2018-10-21T00:25:40.406Z,100.00
2018-10-21T00:28:09.574Z,100.00
2018-10-21T00:30:38.770Z,100.00
2018-10-21T00:33:07.931Z,100.00
2018-10-21T00:35:37.062Z,100.00
2018-10-21T00:38:06.202Z,100.00
2018-10-21T00:40:35.350Z,100.00
2018-10-21T00:43:04.475Z,100.00
2018-10-21T00:45:33.631Z,100.00
2018-10-21T00:48:02.880Z,100.00
2018-10-21T00:50:32.182Z,100.00
2018-10-21T00:53:01.327Z,100.00
2018-10-21T00:55:30.479Z,100.00
2018-10-21T00:57:59.607Z,100.00
2018-10-21T01:00:28.725Z,100.00
2018-10-21T01:02:58.421Z,100.00
2018-10-21T01:05:27.213Z,100.00
2018-10-21T01:07:56.441Z,100.00
2018-10-21T01:10:25.558Z,100.00
2018-10-21T01:12:54.706Z,100.00
2018-10-21T01:15:23.893Z,100.00
2018-10-21T01:17:53.014Z,100.00
2018-10-21T01:20:22.166Z,100.00
2018-10-21T01:22:51.359Z,100.00
2018-10-21T01:25:20.493Z,100.00
2018-10-21T01:27:50.306Z,100.00
2018-10-21T01:30:19.471Z,100.00
2018-10-21T01:32:49.411Z,100.00
2018-10-21T01:35:18.554Z,100.00
2018-10-21T01:37:48.124Z,100.00
2018-10-21T01:40:36.005Z,100.00
2018-10-21T01:43:06.240Z,100.00
2018-10-21T01:45:35.397Z,100.00
2018-10-21T01:48:05.915Z,100.00
2018-10-21T01:50:35.134Z,100.00
2018-10-21T01:53:05.445Z,100.00
2018-10-21T01:55:34.675Z,100.00
2018-10-21T01:58:03.889Z,100.00
2018-10-21T02:00:33.613Z,100.00
2018-10-21T02:03:03.004Z,100.00
2018-10-21T02:05:32.810Z,100.00
2018-10-21T02:08:02.026Z,100.00
2018-10-21T02:10:31.223Z,100.00
2018-10-21T02:13:00.350Z,100.00
2018-10-21T02:15:29.507Z,100.00
2018-10-21T02:17:59.094Z,100.00
2018-10-21T02:20:28.382Z,100.00
2018-10-21T02:22:57.526Z,100.00
2018-10-21T02:25:29.703Z,100.00
2018-10-21T02:27:58.941Z,100.00
2018-10-21T02:30:29.287Z,100.00
2018-10-21T02:32:59.429Z,100.00
2018-10-21T02:35:28.554Z,100.00
2018-10-21T02:37:58.414Z,100.00
2018-10-21T02:41:44.297Z,100.00
2018-10-21T02:44:19.830Z,100.00
2018-10-21T02:46:49.753Z,100.00
2018-10-21T02:49:19.611Z,100.00
2018-10-21T02:51:53.900Z,100.00
2018-10-21T02:54:26.047Z,100.00
2018-10-21T02:56:55.349Z,100.00
2018-10-21T02:59:24.886Z,100.00
2018-10-21T03:01:54.061Z,100.00
2018-10-21T03:04:23.610Z,100.00
2018-10-21T03:06:53.118Z,100.00
2018-10-21T03:09:22.497Z,100.00
2018-10-21T03:11:51.327Z,100.00
2018-10-21T03:14:20.453Z,100.00
2018-10-21T03:16:49.600Z,100.00
2018-10-21T03:19:18.755Z,100.00
2018-10-21T03:21:47.973Z,100.00
2018-10-21T03:24:17.189Z,100.00
2018-10-21T03:26:46.982Z,100.00
2018-10-21T03:29:16.130Z,100.00
2018-10-21T03:31:45.295Z,100.00
2018-10-21T03:34:14.459Z,100.00
2018-10-21T03:36:43.646Z,100.00
2018-10-21T03:39:12.809Z,100.00
2018-10-21T03:41:41.949Z,100.00
2018-10-21T03:44:11.074Z,100.00
2018-10-21T03:46:40.259Z,100.00
2018-10-21T03:49:09.409Z,100.00
2018-10-21T03:51:38.542Z,100.00
2018-10-21T03:54:07.665Z,100.00
2018-10-21T03:56:37.218Z,100.00
2018-10-21T03:59:06.321Z,100.00
2018-10-21T04:01:35.445Z,100.00
2018-10-21T04:04:04.628Z,100.00
2018-10-21T04:06:34.163Z,100.00
2018-10-21T04:09:03.382Z,100.00
2018-10-21T04:11:32.607Z,100.00
2018-10-21T04:14:02.522Z,100.00
2018-10-21T04:16:31.743Z,100.00
2018-10-21T04:19:00.985Z,100.00
2018-10-21T04:21:30.930Z,100.00
2018-10-21T04:24:00.042Z,100.00
2018-10-21T04:26:29.165Z,100.00
2018-10-21T04:28:58.283Z,100.00
2018-10-21T04:31:27.782Z,100.00
2018-10-21T04:33:56.988Z,100.00
2018-10-21T04:36:31.666Z,100.00
2018-10-21T04:39:43.237Z,100.00
2018-10-21T04:42:12.405Z,100.00
2018-10-21T04:44:41.584Z,100.00
2018-10-21T04:47:10.954Z,100.00
2018-10-21T04:49:40.105Z,100.00
2018-10-21T04:52:09.387Z,100.00
2018-10-21T04:54:38.813Z,100.00
2018-10-21T04:57:08.797Z,100.00
2018-10-21T04:59:39.130Z,100.00
2018-10-21T05:02:08.454Z,100.00
2018-10-21T05:04:37.602Z,100.00
2018-10-21T05:07:07.462Z,100.00
2018-10-21T05:09:36.221Z,100.00
2018-10-21T05:12:06.551Z,100.00
2018-10-21T05:14:34.846Z,100.00
2018-10-21T05:17:04.048Z,100.00
2018-10-21T05:19:33.200Z,100.00
2018-10-21T05:22:02.445Z,100.00
2018-10-21T05:24:31.578Z,100.00
2018-10-21T05:27:00.777Z,100.00
2018-10-21T05:29:30.050Z,100.00
2018-10-21T05:31:59.182Z,100.00
2018-10-21T05:34:28.385Z,100.00
2018-10-21T05:36:57.525Z,100.00
2018-10-21T05:39:26.686Z,100.00
2018-10-21T05:41:55.823Z,100.00
2018-10-21T05:44:24.995Z,100.00
2018-10-21T05:46:54.909Z,100.00
2018-10-21T05:49:23.965Z,100.00
2018-10-21T05:51:53.251Z,100.00
2018-10-21T05:54:22.850Z,100.00
2018-10-21T05:56:52.414Z,100.00
2018-10-21T05:59:21.605Z,100.00
2018-10-21T06:01:50.765Z,100.00
2018-10-21T06:04:19.899Z,100.00
2018-10-21T06:06:49.049Z,100.00
2018-10-21T06:09:18.246Z,100.00
2018-10-21T06:11:47.386Z,100.00
2018-10-21T06:14:16.530Z,100.00
2018-10-21T06:16:50.325Z,100.00
2018-10-21T06:19:27.509Z,100.00
2018-10-21T06:21:56.694Z,100.00
2018-10-21T06:24:25.972Z,100.00
2018-10-21T06:26:57.458Z,100.00
2018-10-21T06:29:33.517Z,100.00
2018-10-21T06:32:02.706Z,100.00
2018-10-21T06:34:31.908Z,100.00
2018-10-21T06:37:01.133Z,100.00
2018-10-21T06:39:30.324Z,100.00
2018-10-21T06:41:59.476Z,100.00
2018-10-21T06:44:29.121Z,100.00
2018-10-21T06:46:58.249Z,100.00
2018-10-21T06:49:27.394Z,100.00
2018-10-21T06:51:56.612Z,100.00
2018-10-21T06:54:25.734Z,100.00
2018-10-21T06:56:55.099Z,100.00
2018-10-21T06:59:24.145Z,100.00
2018-10-21T07:01:53.290Z,100.00
2018-10-21T07:04:22.748Z,100.00
2018-10-21T07:06:52.195Z,100.00
2018-10-21T07:09:21.998Z,100.00
2018-10-21T07:11:52.019Z,100.00
2018-10-21T07:14:20.406Z,100.00
2018-10-21T07:16:50.208Z,100.00
2018-10-21T07:19:20.683Z,100.00
2018-10-21T07:21:50.489Z,100.00
2018-10-21T07:24:19.643Z,100.00
2018-10-21T07:26:48.845Z,100.00
2018-10-21T07:29:17.994Z,100.00
2018-10-21T07:31:47.339Z,100.00
2018-10-21T07:34:16.554Z,100.00
2018-10-21T07:36:45.666Z,100.00
2018-10-21T07:39:14.808Z,100.00
2018-10-21T07:41:44.070Z,98.10
2018-10-21T07:44:13.202Z,94.35
2018-10-21T07:46:42.323Z,91.73
2018-10-21T07:49:11.533Z,87.10
2018-10-21T07:51:40.677Z,88.94
2018-10-21T07:54:10.650Z,89.01
2018-10-21T07:56:41.429Z,84.40
2018-10-21T07:59:10.529Z,85.49
2018-10-21T08:01:40.439Z,88.36
2018-10-21T08:04:10.795Z,87.37
2018-10-21T08:06:56.740Z,87.73
2018-10-21T08:09:25.928Z,87.44
2018-10-21T08:11:55.065Z,83.88
2018-10-21T08:14:24.204Z,81.16
2018-10-21T08:16:53.766Z,73.31
2018-10-21T08:19:22.881Z,71.29
2018-10-21T08:21:52.068Z,69.95
2018-10-21T08:24:21.897Z,72.33
2018-10-21T08:26:51.646Z,77.06
2018-10-21T08:29:20.956Z,79.64
2018-10-21T08:31:50.256Z,80.24
2018-10-21T08:34:19.421Z,79.89
2018-10-21T08:36:48.718Z,79.42
2018-10-21T08:39:17.838Z,81.28
2018-10-21T08:41:47.329Z,79.64
2018-10-21T08:44:16.554Z,75.54
2018-10-21T08:46:45.853Z,72.91
2018-10-21T08:49:15.055Z,69.22
2018-10-21T08:51:44.110Z,58.16
2018-10-21T08:54:13.227Z,47.58
2018-10-21T08:56:42.593Z,43.06
2018-10-21T08:59:11.706Z,40.91
2018-10-21T09:01:40.823Z,40.73
2018-10-21T09:04:10.785Z,43.11
2018-10-21T09:06:39.805Z,42.43
2018-10-21T09:09:10.610Z,43.16
2018-10-21T09:11:40.137Z,44.33
2018-10-21T09:14:10.565Z,45.48
2018-10-21T09:16:39.874Z,41.68
2018-10-21T09:19:09.005Z,38.40
2018-10-21T09:21:38.143Z,35.46
2018-10-21T09:24:07.254Z,36.82
2018-10-21T09:26:36.655Z,34.52
2018-10-21T09:29:06.279Z,31.74
2018-10-21T09:31:35.402Z,33.51
2018-10-21T09:34:04.883Z,31.58
2018-10-21T09:36:34.015Z,40.65
2018-10-21T09:39:03.145Z,36.56
2018-10-21T09:41:32.306Z,39.05
2018-10-21T09:44:01.691Z,40.82
2018-10-21T09:46:30.835Z,36.55
2018-10-21T09:49:00.201Z,33.21
2018-10-21T09:51:30.121Z,33.71
2018-10-21T09:53:59.237Z,31.77
2018-10-21T09:56:28.348Z,29.64
2018-10-21T09:58:57.488Z,29.00
2018-10-21T10:01:31.906Z,33.68
2018-10-21T10:04:01.413Z,39.35
2018-10-21T10:06:30.477Z,42.00
2018-10-21T10:08:59.594Z,44.38
2018-10-21T10:11:29.134Z,45.82
2018-10-21T10:13:58.398Z,43.41
2018-10-21T10:16:27.775Z,42.18
2018-10-21T10:18:56.994Z,45.70
2018-10-21T10:21:26.090Z,49.37
2018-10-21T10:23:56.133Z,55.00
2018-10-21T10:26:25.202Z,57.30
2018-10-21T10:28:54.362Z,58.28
2018-10-21T10:31:23.781Z,59.26
2018-10-21T10:33:52.947Z,60.36
2018-10-21T10:36:22.228Z,60.45
2018-10-21T10:38:51.861Z,61.38
2018-10-21T10:41:21.293Z,61.57
2018-10-21T10:43:50.418Z,60.81
2018-10-21T10:46:19.568Z,61.40
2018-10-21T10:48:48.677Z,61.38
2018-10-21T10:51:17.786Z,60.90
2018-10-21T10:53:47.047Z,60.23
2018-10-21T10:56:16.194Z,61.26
2018-10-21T10:58:45.327Z,61.37
2018-10-21T11:01:14.537Z,59.56
2018-10-21T11:03:43.627Z,58.64
2018-10-21T11:06:13.020Z,58.09
2018-10-21T11:08:42.157Z,57.26
2018-10-21T11:11:11.282Z,57.69
2018-10-21T11:13:40.577Z,56.59
2018-10-21T11:16:10.450Z,56.62
2018-10-21T11:18:39.694Z,55.79
2018-10-21T11:21:14.738Z,53.95
2018-10-21T11:23:43.915Z,53.24
2018-10-21T11:26:13.747Z,52.80
2018-10-21T11:28:42.870Z,51.27
2018-10-21T11:31:12.091Z,51.68
2018-10-21T11:33:41.137Z,51.32
2018-10-21T11:36:10.250Z,50.86
2018-10-21T11:38:40.113Z,50.47
2018-10-21T11:41:09.936Z,49.06
2018-10-21T11:43:39.063Z,49.28
2018-10-21T11:46:08.435Z,49.61
2018-10-21T11:48:38.038Z,48.62
2018-10-21T11:51:07.141Z,49.99
2018-10-21T11:53:36.307Z,48.47
2018-10-21T11:56:05.444Z,48.50
2018-10-21T11:58:34.584Z,47.54
2018-10-21T12:01:04.121Z,46.53
2018-10-21T12:03:33.233Z,47.43
2018-10-21T12:06:02.665Z,48.32
2018-10-21T12:08:32.503Z,46.37
2018-10-21T12:11:01.627Z,46.33
2018-10-21T12:13:30.741Z,48.19
2018-10-21T12:16:00.158Z,46.44
2018-10-21T12:18:29.233Z,46.97
2018-10-21T12:20:58.358Z,47.21
2018-10-21T12:23:27.624Z,46.55
2018-10-21T12:25:56.718Z,46.86
2018-10-21T12:28:25.841Z,45.93
2018-10-21T12:30:55.004Z,46.05
2018-10-21T12:33:24.166Z,46.30
2018-10-21T12:35:53.357Z,44.89
2018-10-21T12:38:22.453Z,45.01
2018-10-21T12:40:51.582Z,45.18
2018-10-21T12:43:20.750Z,44.45
2018-10-21T12:45:50.482Z,45.62
2018-10-21T12:48:19.587Z,45.22
2018-10-21T12:50:48.737Z,44.20
2018-10-21T12:53:17.843Z,43.62
2018-10-21T12:55:50.497Z,43.34
2018-10-21T12:58:19.957Z,43.71
2018-10-21T13:00:49.101Z,43.64
2018-10-21T13:03:18.365Z,43.29
2018-10-21T13:05:47.479Z,43.10
2018-10-21T13:08:19.832Z,43.10
2018-10-21T13:10:48.977Z,43.84
2018-10-21T13:13:18.101Z,42.12
2018-10-21T13:15:46.890Z,42.33
2018-10-21T13:18:16.062Z,41.59
2018-10-21T13:20:45.198Z,41.73
2018-10-21T13:23:14.359Z,43.05
2018-10-21T13:25:43.471Z,41.81
2018-10-21T13:28:12.661Z,42.43
2018-10-21T13:30:42.173Z,41.94
2018-10-21T13:33:11.299Z,41.46
2018-10-21T13:35:40.462Z,41.65
2018-10-21T13:38:09.992Z,41.33
2018-10-21T13:40:39.151Z,41.84
2018-10-21T13:43:08.602Z,41.25
2018-10-21T13:45:37.742Z,41.73
2018-10-21T13:48:07.150Z,42.76
2018-10-21T13:50:36.397Z,41.91
2018-10-21T13:53:05.630Z,41.89
2018-10-21T13:55:34.779Z,42.63
2018-10-21T13:58:04.196Z,40.75
2018-10-21T14:00:33.386Z,41.62
2018-10-21T14:03:02.433Z,41.16
2018-10-21T14:05:31.549Z,41.43
2018-10-21T14:08:00.702Z,41.81
2018-10-21T14:10:29.890Z,41.70
2018-10-21T14:12:59.072Z,42.23
2018-10-21T14:15:29.489Z,41.19
2018-10-21T14:17:58.804Z,42.20
2018-10-21T14:20:27.938Z,44.02
2018-10-21T14:22:57.062Z,42.90
2018-10-21T14:25:27.244Z,42.79
2018-10-21T14:27:56.435Z,42.66
2018-10-21T14:30:25.555Z,42.76
2018-10-21T14:32:54.817Z,42.54
2018-10-21T14:35:23.921Z,43.30
2018-10-21T14:37:53.069Z,43.15
2018-10-21T14:40:22.169Z,42.62
2018-10-21T14:42:51.282Z,43.10
2018-10-21T14:45:20.477Z,43.29
2018-10-21T14:47:51.309Z,42.28
2018-10-21T14:50:20.838Z,42.74
2018-10-21T14:52:49.961Z,43.07
2018-10-21T14:55:19.209Z,43.31
2018-10-21T14:57:48.366Z,43.94
2018-10-21T15:00:17.538Z,43.20
2018-10-21T15:02:46.607Z,43.94
2018-10-21T15:05:16.278Z,44.33
2018-10-21T15:07:46.822Z,44.26
2018-10-21T15:10:16.155Z,44.36
2018-10-21T15:12:45.194Z,44.64
2018-10-21T15:15:14.298Z,42.93
2018-10-21T15:17:43.406Z,43.97
2018-10-21T15:20:13.974Z,45.25
2018-10-21T15:22:44.630Z,44.78
2018-10-21T15:25:13.765Z,44.31
2018-10-21T15:27:42.911Z,44.12
2018-10-21T15:30:12.987Z,43.68
2018-10-21T15:32:42.076Z,44.50
2018-10-21T15:35:11.214Z,44.21
2018-10-21T15:37:41.289Z,43.90
2018-10-21T15:40:11.239Z,44.42
2018-10-21T15:42:40.366Z,44.87
2018-10-21T15:45:10.954Z,44.73
2018-10-21T15:47:40.109Z,44.82
2018-10-21T15:50:09.642Z,45.33
2018-10-21T15:52:38.782Z,45.15
2018-10-21T15:55:08.923Z,46.43
2018-10-21T15:57:38.130Z,45.89
2018-10-21T16:00:10.130Z,46.46
2018-10-21T16:02:39.373Z,46.79
2018-10-21T16:05:09.737Z,50.02
2018-10-21T16:07:38.931Z,49.51
2018-10-21T16:10:09.264Z,49.38
2018-10-21T16:12:38.509Z,50.10
2018-10-21T16:15:11.334Z,52.50
2018-10-21T16:17:40.546Z,50.92
2018-10-21T16:20:09.721Z,51.42
2018-10-21T16:22:41.014Z,52.40
2018-10-21T16:25:12.090Z,53.68
2018-10-21T16:27:41.584Z,53.96
2018-10-21T16:30:13.528Z,53.50
2018-10-21T16:32:43.315Z,53.14
2018-10-21T16:35:13.762Z,54.70
2018-10-21T16:37:43.010Z,53.49
2018-10-21T16:40:15.529Z,55.34
2018-10-21T16:42:45.046Z,55.76
2018-10-21T16:45:14.943Z,57.02
2018-10-21T16:47:44.092Z,56.22
2018-10-21T16:50:15.600Z,56.62
2018-10-21T16:52:45.807Z,55.81
2018-10-21T16:55:15.528Z,57.96
2018-10-21T16:57:44.653Z,58.31
2018-10-21T17:00:16.491Z,57.15
2018-10-21T17:02:45.858Z,59.84
2018-10-21T17:05:15.077Z,62.56
2018-10-21T17:07:44.157Z,61.73
2018-10-21T17:10:13.726Z,61.04
2018-10-21T17:12:42.534Z,62.92
2018-10-21T17:15:12.122Z,64.77
2018-10-21T17:17:42.075Z,64.19
2018-10-21T17:20:13.203Z,64.09
2018-10-21T17:22:43.582Z,65.21
2018-10-21T17:25:13.042Z,64.43
2018-10-21T17:27:42.379Z,65.02
2018-10-21T17:30:18.262Z,66.67
2018-10-21T17:32:47.904Z,66.81
2018-10-21T17:35:17.012Z,67.92
2018-10-21T17:37:46.193Z,67.16
2018-10-21T17:40:15.417Z,67.47
2018-10-21T17:42:44.518Z,66.81
2018-10-21T17:45:14.762Z,68.45
2018-10-21T17:47:44.063Z,69.65
2018-10-21T17:50:14.388Z,69.67
2018-10-21T17:52:44.559Z,69.19
2018-10-21T17:55:13.987Z,68.50
2018-10-21T17:57:43.283Z,68.96
2018-10-21T18:00:13.373Z,69.96
2018-10-21T18:02:42.151Z,69.63
2018-10-21T18:05:13.697Z,70.45
2018-10-21T18:07:43.186Z,71.10
2018-10-21T18:10:12.959Z,71.35
2018-10-21T18:12:41.985Z,70.96
2018-10-21T18:15:11.879Z,71.13
2018-10-21T18:17:41.577Z,73.81
2018-10-21T18:20:12.162Z,70.43
2018-10-21T18:22:41.277Z,69.89
2018-10-21T18:25:11.017Z,70.52
2018-10-21T18:27:40.530Z,71.23
2018-10-21T18:30:11.170Z,73.21
2018-10-21T18:32:40.919Z,73.59
2018-10-21T18:35:12.659Z,73.82
2018-10-21T18:37:41.912Z,74.26
2018-10-21T18:40:11.865Z,79.97
2018-10-21T18:42:41.260Z,79.24
2018-10-21T18:45:12.725Z,79.08
2018-10-21T18:47:42.425Z,75.93
2018-10-21T18:50:13.283Z,76.96
2018-10-21T18:52:42.429Z,77.40
2018-10-21T18:55:12.645Z,78.78
2018-10-21T18:57:42.580Z,78.04
2018-10-21T19:00:15.078Z,78.02
2018-10-21T19:02:44.273Z,77.58
2018-10-21T19:05:14.058Z,77.68
2018-10-21T19:07:43.577Z,78.33
2018-10-21T19:10:14.122Z,78.30
2018-10-21T19:12:43.645Z,79.00
2018-10-21T19:15:14.721Z,78.83
2018-10-21T19:17:44.478Z,78.89
2018-10-21T19:20:16.067Z,79.32
2018-10-21T19:22:45.202Z,80.04
2018-10-21T19:25:15.988Z,80.49
2018-10-21T19:27:45.674Z,80.54
2018-10-21T19:30:15.989Z,80.63
2018-10-21T19:32:45.188Z,80.87
2018-10-21T19:35:15.849Z,81.75
2018-10-21T19:37:44.990Z,81.99
2018-10-21T19:40:15.504Z,82.83
2018-10-21T19:42:45.467Z,82.56
2018-10-21T19:45:15.221Z,82.29
2018-10-21T19:47:44.407Z,81.71
2018-10-21T19:50:15.423Z,81.83
2018-10-21T19:52:44.925Z,81.91
2018-10-21T19:55:14.535Z,82.64
2018-10-21T19:57:44.693Z,82.83
2018-10-21T20:00:16.295Z,83.34
2018-10-21T20:02:45.989Z,83.27
2018-10-21T20:05:14.913Z,83.99
2018-10-21T20:07:44.086Z,84.03
2018-10-21T20:10:14.529Z,84.65
2018-10-21T20:12:43.592Z,85.29
2018-10-21T20:15:13.518Z,86.92
2018-10-21T20:17:42.785Z,90.06
2018-10-21T20:20:12.600Z,90.78
2018-10-21T20:22:42.329Z,92.20
2018-10-21T20:25:12.322Z,92.06
2018-10-21T20:27:41.361Z,92.65
2018-10-21T20:30:12.444Z,92.19
2018-10-21T20:32:41.881Z,90.59
2018-10-21T20:35:12.317Z,89.51
2018-10-21T20:37:41.473Z,89.72
2018-10-21T20:40:12.497Z,90.02
2018-10-21T20:42:41.533Z,89.97
2018-10-21T20:45:11.981Z,90.58
2018-10-21T20:47:41.105Z,91.31
2018-10-21T20:50:10.976Z,91.54
2018-10-21T20:52:40.169Z,93.57
2018-10-21T20:55:09.825Z,95.14
2018-10-21T20:57:38.685Z,96.35
2018-10-21T21:00:07.893Z,97.57
2018-10-21T21:02:37.441Z,99.12
2018-10-21T21:05:08.978Z,100.00
2018-10-21T21:07:39.185Z,100.00
2018-10-21T21:10:09.310Z,100.00
2018-10-21T21:12:38.426Z,100.00
2018-10-21T21:15:08.354Z,100.00
2018-10-21T21:17:38.261Z,99.20
2018-10-21T21:20:08.423Z,99.29
2018-10-21T21:22:38.288Z,98.71
2018-10-21T21:25:07.873Z,98.68
2018-10-21T21:27:37.174Z,98.13
2018-10-21T21:30:07.633Z,98.37
2018-10-21T21:32:37.761Z,98.46
2018-10-21T21:35:07.806Z,99.60
2018-10-21T21:37:36.895Z,100.00
2018-10-21T21:40:08.339Z,100.00
2018-10-21T21:42:38.585Z,100.00
2018-10-21T21:45:08.959Z,100.00
2018-10-21T21:47:39.562Z,100.00
2018-10-21T21:50:09.543Z,100.00
2018-10-21T21:52:39.537Z,100.00
2018-10-21T21:55:08.865Z,100.00
2018-10-21T21:57:37.715Z,100.00
2018-10-21T22:00:11.067Z,100.00
2018-10-21T22:02:40.329Z,100.00
2018-10-21T22:05:10.595Z,100.00
2018-10-21T22:07:41.197Z,100.00
2018-10-21T22:10:13.556Z,100.00
2018-10-21T22:12:43.622Z,100.00
2018-10-21T22:15:12.962Z,100.00
2018-10-21T22:17:42.638Z,100.00
2018-10-21T22:20:12.824Z,100.00
2018-10-21T22:22:42.306Z,100.00
2018-10-21T22:25:12.052Z,100.00
2018-10-21T22:27:41.951Z,100.00
2018-10-21T22:30:11.621Z,100.00
2018-10-21T22:32:40.972Z,100.00
2018-10-21T22:35:10.398Z,100.00
2018-10-21T22:37:39.509Z,100.00
2018-10-21T22:40:08.694Z,100.00
2018-10-21T22:42:38.177Z,100.00
2018-10-21T22:45:08.588Z,100.00
2018-10-21T22:47:37.774Z,100.00
2018-10-21T22:50:09.719Z,100.00
2018-10-21T22:52:38.882Z,100.00
2018-10-21T22:55:09.121Z,100.00
2018-10-21T22:57:38.411Z,100.00
2018-10-21T23:00:09.195Z,100.00
2018-10-21T23:02:38.386Z,100.00
2018-10-21T23:05:08.267Z,100.00
2018-10-21T23:07:38.166Z,100.00
2018-10-21T23:10:07.376Z,100.00
2018-10-21T23:12:36.818Z,100.00
2018-10-21T23:15:06.706Z,100.00
2018-10-21T23:17:36.470Z,100.00
2018-10-21T23:20:07.290Z,100.00
2018-10-21T23:22:36.818Z,100.00
2018-10-21T23:25:07.523Z,100.00
2018-10-21T23:27:36.637Z,100.00
2018-10-21T23:30:07.063Z,100.00
2018-10-21T23:32:36.441Z,100.00
2018-10-21T23:35:06.103Z,100.00
2018-10-21T23:37:35.351Z,100.00
2018-10-21T23:40:04.822Z,100.00
2018-10-21T23:42:33.913Z,100.00
2018-10-21T23:45:03.047Z,100.00
2018-10-21T23:47:32.182Z,100.00
2018-10-21T23:50:01.823Z,100.00
2018-10-21T23:52:30.926Z,100.00
2018-10-21T23:55:00.030Z,100.00
2018-10-21T23:57:29.604Z,100.00
2018-10-21T23:59:58.753Z,100.00
